sensor_id;sensor_type;location;lat;lon;timestamp;P1;durP1;ratioP1;P2;durP2;ratioP2
5058;SDS011;2548;52.050;11.036;2024-03-08T00:02:15;35.50;;;20.27;;
5058;SDS011;2548;52.050;11.036;2024-03-08T00:04:43;34.63;;;20.08;;
5058;SDS011;2548;52.050;11.036;2024-03-08T00:07:10;40.13;;;19.83;;
5058;SDS011;2548;52.050;11.036;2024-03-08T00:09:40;36.28;;;20.73;;
5058;SDS011;2548;52.050;11.036;2024-03-08T00:12:08;40.53;;;20.38;;
5058;SDS011;2548;52.050;11.036;2024-03-08T00:14:35;30.92;;;19.30;;
5058;SDS011;2548;52.050;11.036;2024-03-08T00:17:04;32.97;;;19.05;;
5058;SDS011;2548;52.050;11.036;2024-03-08T00:19:31;32.58;;;20.77;;
5058;SDS011;2548;52.050;11.036;2024-03-08T00:21:58;33.80;;;20.33;;
5058;SDS011;2548;52.050;11.036;2024-03-08T00:24:26;36.75;;;21.70;;
5058;SDS011;2548;52.050;11.036;2024-03-08T00:26:56;29.83;;;18.17;;
5058;SDS011;2548;52.050;11.036;2024-03-08T00:29:24;39.40;;;20.05;;
5058;SDS011;2548;52.050;11.036;2024-03-08T00:31:51;31.55;;;17.95;;
5058;SDS011;2548;52.050;11.036;2024-03-08T00:34:19;35.42;;;20.00;;
5058;SDS011;2548;52.050;11.036;2024-03-08T00:36:46;39.97;;;23.45;;
5058;SDS011;2548;52.050;11.036;2024-03-08T00:39:14;39.75;;;19.90;;
5058;SDS011;2548;52.050;11.036;2024-03-08T00:41:42;34.08;;;20.58;;
5058;SDS011;2548;52.050;11.036;2024-03-08T00:44:11;37.25;;;20.38;;
5058;SDS011;2548;52.050;11.036;2024-03-08T00:46:39;33.03;;;20.73;;
5058;SDS011;2548;52.050;11.036;2024-03-08T00:49:06;38.13;;;22.38;;
5058;SDS011;2548;52.050;11.036;2024-03-08T00:51:34;41.35;;;22.15;;
5058;SDS011;2548;52.050;11.036;2024-03-08T00:54:01;42.90;;;22.30;;
5058;SDS011;2548;52.050;11.036;2024-03-08T00:56:29;41.40;;;21.70;;
5058;SDS011;2548;52.050;11.036;2024-03-08T00:58:56;34.47;;;20.13;;
5058;SDS011;2548;52.050;11.036;2024-03-08T01:01:26;35.67;;;20.20;;
5058;SDS011;2548;52.050;11.036;2024-03-08T01:03:54;37.33;;;20.90;;
5058;SDS011;2548;52.050;11.036;2024-03-08T01:06:22;32.38;;;20.23;;
5058;SDS011;2548;52.050;11.036;2024-03-08T01:08:50;38.22;;;20.92;;
5058;SDS011;2548;52.050;11.036;2024-03-08T01:11:18;35.90;;;19.23;;
5058;SDS011;2548;52.050;11.036;2024-03-08T01:13:45;32.38;;;19.40;;
5058;SDS011;2548;52.050;11.036;2024-03-08T01:16:13;38.40;;;21.60;;
5058;SDS011;2548;52.050;11.036;2024-03-08T01:18:43;33.88;;;20.60;;
5058;SDS011;2548;52.050;11.036;2024-03-08T01:21:12;34.85;;;20.65;;
5058;SDS011;2548;52.050;11.036;2024-03-08T01:23:39;35.85;;;19.92;;
5058;SDS011;2548;52.050;11.036;2024-03-08T01:26:07;38.90;;;21.38;;
5058;SDS011;2548;52.050;11.036;2024-03-08T01:28:34;33.65;;;20.40;;
5058;SDS011;2548;52.050;11.036;2024-03-08T01:31:05;41.08;;;21.48;;
5058;SDS011;2548;52.050;11.036;2024-03-08T01:33:33;35.50;;;21.38;;
5058;SDS011;2548;52.050;11.036;2024-03-08T01:36:02;45.13;;;22.80;;
5058;SDS011;2548;52.050;11.036;2024-03-08T01:38:30;36.45;;;20.48;;
5058;SDS011;2548;52.050;11.036;2024-03-08T01:40:57;39.55;;;20.08;;
5058;SDS011;2548;52.050;11.036;2024-03-08T01:43:25;35.00;;;20.65;;
5058;SDS011;2548;52.050;11.036;2024-03-08T01:45:54;29.75;;;19.05;;
5058;SDS011;2548;52.050;11.036;2024-03-08T01:48:23;38.10;;;22.83;;
5058;SDS011;2548;52.050;11.036;2024-03-08T01:50:50;41.63;;;21.42;;
5058;SDS011;2548;52.050;11.036;2024-03-08T01:53:21;36.47;;;21.55;;
5058;SDS011;2548;52.050;11.036;2024-03-08T01:55:50;44.75;;;21.63;;
5058;SDS011;2548;52.050;11.036;2024-03-08T01:58:21;37.05;;;20.95;;
5058;SDS011;2548;52.050;11.036;2024-03-08T02:00:50;38.15;;;20.33;;
5058;SDS011;2548;52.050;11.036;2024-03-08T02:03:19;36.33;;;20.55;;
5058;SDS011;2548;52.050;11.036;2024-03-08T02:05:48;29.38;;;18.65;;
5058;SDS011;2548;52.050;11.036;2024-03-08T02:08:17;39.40;;;22.13;;
5058;SDS011;2548;52.050;11.036;2024-03-08T02:10:47;45.20;;;20.20;;
5058;SDS011;2548;52.050;11.036;2024-03-08T02:13:15;39.00;;;20.60;;
5058;SDS011;2548;52.050;11.036;2024-03-08T02:15:52;45.63;;;23.40;;
5058;SDS011;2548;52.050;11.036;2024-03-08T02:18:20;41.08;;;24.20;;
5058;SDS011;2548;52.050;11.036;2024-03-08T02:20:50;39.40;;;23.35;;
5058;SDS011;2548;52.050;11.036;2024-03-08T02:23:18;36.53;;;23.00;;
5058;SDS011;2548;52.050;11.036;2024-03-08T02:25:46;32.90;;;19.95;;
5058;SDS011;2548;52.050;11.036;2024-03-08T02:28:13;44.55;;;23.02;;
5058;SDS011;2548;52.050;11.036;2024-03-08T02:30:41;40.53;;;22.23;;
5058;SDS011;2548;52.050;11.036;2024-03-08T02:33:08;42.92;;;23.45;;
5058;SDS011;2548;52.050;11.036;2024-03-08T02:35:36;32.05;;;20.45;;
5058;SDS011;2548;52.050;11.036;2024-03-08T02:38:05;36.40;;;22.33;;
5058;SDS011;2548;52.050;11.036;2024-03-08T02:40:32;34.22;;;21.60;;
5058;SDS011;2548;52.050;11.036;2024-03-08T02:43:00;42.25;;;23.45;;
5058;SDS011;2548;52.050;11.036;2024-03-08T02:45:27;40.40;;;23.33;;
5058;SDS011;2548;52.050;11.036;2024-03-08T02:47:55;42.17;;;22.77;;
5058;SDS011;2548;52.050;11.036;2024-03-08T02:50:23;34.85;;;20.33;;
5058;SDS011;2548;52.050;11.036;2024-03-08T02:52:51;38.55;;;22.30;;
5058;SDS011;2548;52.050;11.036;2024-03-08T02:55:20;40.20;;;23.25;;
5058;SDS011;2548;52.050;11.036;2024-03-08T02:57:47;41.00;;;23.00;;
5058;SDS011;2548;52.050;11.036;2024-03-08T03:00:15;38.00;;;21.15;;
5058;SDS011;2548;52.050;11.036;2024-03-08T03:02:44;35.80;;;21.45;;
5058;SDS011;2548;52.050;11.036;2024-03-08T03:05:12;35.47;;;20.73;;
5058;SDS011;2548;52.050;11.036;2024-03-08T03:07:40;37.78;;;20.30;;
5058;SDS011;2548;52.050;11.036;2024-03-08T03:10:07;37.35;;;22.70;;
5058;SDS011;2548;52.050;11.036;2024-03-08T03:12:37;40.55;;;21.73;;
5058;SDS011;2548;52.050;11.036;2024-03-08T03:15:04;47.38;;;25.33;;
5058;SDS011;2548;52.050;11.036;2024-03-08T03:17:32;40.65;;;22.65;;
5058;SDS011;2548;52.050;11.036;2024-03-08T03:20:00;41.75;;;22.63;;
5058;SDS011;2548;52.050;11.036;2024-03-08T03:22:29;38.90;;;22.23;;
5058;SDS011;2548;52.050;11.036;2024-03-08T03:24:57;35.15;;;21.35;;
5058;SDS011;2548;52.050;11.036;2024-03-08T03:27:25;38.55;;;23.80;;
5058;SDS011;2548;52.050;11.036;2024-03-08T03:29:53;47.50;;;24.50;;
5058;SDS011;2548;52.050;11.036;2024-03-08T03:32:21;40.70;;;23.23;;
5058;SDS011;2548;52.050;11.036;2024-03-08T03:34:49;42.38;;;21.95;;
5058;SDS011;2548;52.050;11.036;2024-03-08T03:37:18;48.33;;;23.38;;
5058;SDS011;2548;52.050;11.036;2024-03-08T03:39:46;37.67;;;22.95;;
5058;SDS011;2548;52.050;11.036;2024-03-08T03:42:15;37.88;;;21.42;;
5058;SDS011;2548;52.050;11.036;2024-03-08T03:44:43;38.38;;;22.85;;
5058;SDS011;2548;52.050;11.036;2024-03-08T03:47:12;36.15;;;22.08;;
5058;SDS011;2548;52.050;11.036;2024-03-08T03:49:41;36.28;;;22.35;;
5058;SDS011;2548;52.050;11.036;2024-03-08T03:52:08;42.65;;;24.05;;
5058;SDS011;2548;52.050;11.036;2024-03-08T03:54:36;34.30;;;20.92;;
5058;SDS011;2548;52.050;11.036;2024-03-08T03:57:03;33.58;;;21.63;;
5058;SDS011;2548;52.050;11.036;2024-03-08T03:59:31;40.65;;;22.83;;
5058;SDS011;2548;52.050;11.036;2024-03-08T04:01:58;40.35;;;22.90;;
5058;SDS011;2548;52.050;11.036;2024-03-08T04:04:27;36.63;;;21.55;;
5058;SDS011;2548;52.050;11.036;2024-03-08T04:06:55;36.38;;;20.92;;
5058;SDS011;2548;52.050;11.036;2024-03-08T04:09:22;39.88;;;20.67;;
5058;SDS011;2548;52.050;11.036;2024-03-08T04:11:49;38.63;;;23.33;;
5058;SDS011;2548;52.050;11.036;2024-03-08T04:14:18;35.95;;;22.20;;
5058;SDS011;2548;52.050;11.036;2024-03-08T04:16:52;37.03;;;23.13;;
5058;SDS011;2548;52.050;11.036;2024-03-08T04:19:20;41.83;;;22.48;;
5058;SDS011;2548;52.050;11.036;2024-03-08T04:21:49;40.47;;;24.48;;
5058;SDS011;2548;52.050;11.036;2024-03-08T04:24:17;37.30;;;21.90;;
5058;SDS011;2548;52.050;11.036;2024-03-08T04:26:45;38.42;;;22.02;;
5058;SDS011;2548;52.050;11.036;2024-03-08T04:29:13;41.15;;;23.80;;
5058;SDS011;2548;52.050;11.036;2024-03-08T04:31:40;39.70;;;21.42;;
5058;SDS011;2548;52.050;11.036;2024-03-08T04:34:08;29.00;;;20.15;;
5058;SDS011;2548;52.050;11.036;2024-03-08T04:36:35;44.08;;;25.88;;
5058;SDS011;2548;52.050;11.036;2024-03-08T04:39:05;34.40;;;22.60;;
5058;SDS011;2548;52.050;11.036;2024-03-08T04:41:35;31.80;;;21.90;;
5058;SDS011;2548;52.050;11.036;2024-03-08T04:44:03;42.13;;;23.23;;
5058;SDS011;2548;52.050;11.036;2024-03-08T04:46:31;40.08;;;23.60;;
5058;SDS011;2548;52.050;11.036;2024-03-08T04:48:58;36.70;;;21.10;;
5058;SDS011;2548;52.050;11.036;2024-03-08T04:51:26;42.90;;;21.60;;
5058;SDS011;2548;52.050;11.036;2024-03-08T04:53:53;33.55;;;19.75;;
5058;SDS011;2548;52.050;11.036;2024-03-08T04:56:22;33.88;;;21.90;;
5058;SDS011;2548;52.050;11.036;2024-03-08T04:58:49;34.53;;;19.98;;
5058;SDS011;2548;52.050;11.036;2024-03-08T05:01:17;32.53;;;22.02;;
5058;SDS011;2548;52.050;11.036;2024-03-08T05:03:44;38.05;;;22.60;;
5058;SDS011;2548;52.050;11.036;2024-03-08T05:06:14;40.58;;;22.33;;
5058;SDS011;2548;52.050;11.036;2024-03-08T05:08:41;36.58;;;21.75;;
5058;SDS011;2548;52.050;11.036;2024-03-08T05:11:09;36.42;;;22.08;;
5058;SDS011;2548;52.050;11.036;2024-03-08T05:13:38;36.67;;;21.25;;
5058;SDS011;2548;52.050;11.036;2024-03-08T05:16:06;40.03;;;21.48;;
5058;SDS011;2548;52.050;11.036;2024-03-08T05:18:33;39.90;;;23.63;;
5058;SDS011;2548;52.050;11.036;2024-03-08T05:21:01;35.70;;;19.77;;
5058;SDS011;2548;52.050;11.036;2024-03-08T05:23:29;39.60;;;21.33;;
5058;SDS011;2548;52.050;11.036;2024-03-08T05:26:02;40.13;;;22.58;;
5058;SDS011;2548;52.050;11.036;2024-03-08T05:28:29;39.83;;;21.60;;
5058;SDS011;2548;52.050;11.036;2024-03-08T05:30:58;32.88;;;20.17;;
5058;SDS011;2548;52.050;11.036;2024-03-08T05:33:27;37.80;;;22.05;;
5058;SDS011;2548;52.050;11.036;2024-03-08T05:35:54;34.95;;;20.30;;
5058;SDS011;2548;52.050;11.036;2024-03-08T05:38:22;42.92;;;22.98;;
5058;SDS011;2548;52.050;11.036;2024-03-08T05:40:50;38.53;;;22.45;;
5058;SDS011;2548;52.050;11.036;2024-03-08T05:43:17;40.38;;;21.25;;
5058;SDS011;2548;52.050;11.036;2024-03-08T05:45:45;39.50;;;24.40;;
5058;SDS011;2548;52.050;11.036;2024-03-08T05:48:14;37.00;;;22.33;;
5058;SDS011;2548;52.050;11.036;2024-03-08T05:50:44;36.47;;;21.05;;
5058;SDS011;2548;52.050;11.036;2024-03-08T05:53:12;38.72;;;22.20;;
5058;SDS011;2548;52.050;11.036;2024-03-08T05:55:40;37.13;;;22.02;;
5058;SDS011;2548;52.050;11.036;2024-03-08T05:58:07;38.67;;;21.25;;
5058;SDS011;2548;52.050;11.036;2024-03-08T06:00:37;39.05;;;23.67;;
5058;SDS011;2548;52.050;11.036;2024-03-08T06:03:04;37.25;;;22.50;;
5058;SDS011;2548;52.050;11.036;2024-03-08T06:05:33;39.70;;;22.17;;
5058;SDS011;2548;52.050;11.036;2024-03-08T06:08:00;39.95;;;22.55;;
5058;SDS011;2548;52.050;11.036;2024-03-08T06:10:28;37.67;;;22.13;;
5058;SDS011;2548;52.050;11.036;2024-03-08T06:12:55;37.42;;;24.10;;
5058;SDS011;2548;52.050;11.036;2024-03-08T06:15:23;36.40;;;22.95;;
5058;SDS011;2548;52.050;11.036;2024-03-08T06:17:50;42.20;;;23.33;;
5058;SDS011;2548;52.050;11.036;2024-03-08T06:20:19;36.40;;;23.02;;
5058;SDS011;2548;52.050;11.036;2024-03-08T06:22:47;41.20;;;23.85;;
5058;SDS011;2548;52.050;11.036;2024-03-08T06:25:15;34.88;;;21.90;;
5058;SDS011;2548;52.050;11.036;2024-03-08T06:27:42;39.42;;;21.85;;
5058;SDS011;2548;52.050;11.036;2024-03-08T06:30:12;31.90;;;20.50;;
5058;SDS011;2548;52.050;11.036;2024-03-08T06:32:41;43.78;;;23.75;;
5058;SDS011;2548;52.050;11.036;2024-03-08T06:35:09;38.05;;;22.45;;
5058;SDS011;2548;52.050;11.036;2024-03-08T06:37:37;39.80;;;22.83;;
5058;SDS011;2548;52.050;11.036;2024-03-08T06:40:07;39.65;;;22.27;;
5058;SDS011;2548;52.050;11.036;2024-03-08T06:42:39;36.97;;;22.88;;
5058;SDS011;2548;52.050;11.036;2024-03-08T06:45:07;32.47;;;20.63;;
5058;SDS011;2548;52.050;11.036;2024-03-08T06:47:35;34.47;;;22.63;;
5058;SDS011;2548;52.050;11.036;2024-03-08T06:50:03;41.92;;;22.98;;
5058;SDS011;2548;52.050;11.036;2024-03-08T06:52:32;38.17;;;22.20;;
5058;SDS011;2548;52.050;11.036;2024-03-08T06:54:59;35.25;;;22.83;;
5058;SDS011;2548;52.050;11.036;2024-03-08T06:57:28;36.85;;;22.52;;
5058;SDS011;2548;52.050;11.036;2024-03-08T06:59:56;38.78;;;21.05;;
5058;SDS011;2548;52.050;11.036;2024-03-08T07:02:23;38.25;;;24.20;;
5058;SDS011;2548;52.050;11.036;2024-03-08T07:04:51;40.50;;;22.75;;
5058;SDS011;2548;52.050;11.036;2024-03-08T07:07:19;38.60;;;22.15;;
5058;SDS011;2548;52.050;11.036;2024-03-08T07:09:47;41.75;;;23.42;;
5058;SDS011;2548;52.050;11.036;2024-03-08T07:12:15;43.05;;;24.23;;
5058;SDS011;2548;52.050;11.036;2024-03-08T07:14:44;37.10;;;22.52;;
5058;SDS011;2548;52.050;11.036;2024-03-08T07:17:11;45.78;;;24.15;;
5058;SDS011;2548;52.050;11.036;2024-03-08T07:22:44;43.03;;;23.23;;
5058;SDS011;2548;52.050;11.036;2024-03-08T07:25:13;36.60;;;22.33;;
5058;SDS011;2548;52.050;11.036;2024-03-08T07:27:47;40.45;;;23.45;;
5058;SDS011;2548;52.050;11.036;2024-03-08T07:30:16;37.63;;;24.55;;
5058;SDS011;2548;52.050;11.036;2024-03-08T07:32:58;32.42;;;23.13;;
5058;SDS011;2548;52.050;11.036;2024-03-08T07:35:25;40.00;;;24.10;;
5058;SDS011;2548;52.050;11.036;2024-03-08T07:37:53;37.35;;;23.92;;
5058;SDS011;2548;52.050;11.036;2024-03-08T07:40:21;41.28;;;25.42;;
5058;SDS011;2548;52.050;11.036;2024-03-08T07:42:48;42.92;;;23.80;;
5058;SDS011;2548;52.050;11.036;2024-03-08T07:45:17;41.22;;;24.40;;
5058;SDS011;2548;52.050;11.036;2024-03-08T07:47:45;46.28;;;27.15;;
5058;SDS011;2548;52.050;11.036;2024-03-08T07:50:12;42.65;;;25.33;;
5058;SDS011;2548;52.050;11.036;2024-03-08T07:52:42;42.33;;;25.70;;
5058;SDS011;2548;52.050;11.036;2024-03-08T07:55:09;40.35;;;24.90;;
5058;SDS011;2548;52.050;11.036;2024-03-08T07:57:37;41.90;;;25.90;;
5058;SDS011;2548;52.050;11.036;2024-03-08T08:00:05;42.88;;;25.77;;
5058;SDS011;2548;52.050;11.036;2024-03-08T08:02:36;41.97;;;25.02;;
5058;SDS011;2548;52.050;11.036;2024-03-08T08:05:04;42.00;;;25.95;;
5058;SDS011;2548;52.050;11.036;2024-03-08T08:07:32;54.85;;;27.10;;
5058;SDS011;2548;52.050;11.036;2024-03-08T08:09:59;46.25;;;26.00;;
5058;SDS011;2548;52.050;11.036;2024-03-08T08:12:27;49.20;;;25.05;;
5058;SDS011;2548;52.050;11.036;2024-03-08T08:14:54;61.70;;;25.45;;
5058;SDS011;2548;52.050;11.036;2024-03-08T08:17:22;41.28;;;26.77;;
5058;SDS011;2548;52.050;11.036;2024-03-08T08:19:51;38.65;;;25.20;;
5058;SDS011;2548;52.050;11.036;2024-03-08T08:22:18;40.47;;;25.42;;
5058;SDS011;2548;52.050;11.036;2024-03-08T08:24:46;41.15;;;27.75;;
5058;SDS011;2548;52.050;11.036;2024-03-08T08:27:13;45.03;;;27.65;;
5058;SDS011;2548;52.050;11.036;2024-03-08T08:29:41;48.75;;;25.67;;
5058;SDS011;2548;52.050;11.036;2024-03-08T08:32:08;42.08;;;25.90;;
5058;SDS011;2548;52.050;11.036;2024-03-08T08:34:36;39.25;;;25.33;;
5058;SDS011;2548;52.050;11.036;2024-03-08T08:37:05;44.97;;;26.58;;
5058;SDS011;2548;52.050;11.036;2024-03-08T08:39:44;45.63;;;27.27;;
5058;SDS011;2548;52.050;11.036;2024-03-08T08:42:11;45.50;;;27.48;;
5058;SDS011;2548;52.050;11.036;2024-03-08T08:44:39;46.58;;;27.10;;
5058;SDS011;2548;52.050;11.036;2024-03-08T08:47:06;48.00;;;27.15;;
5058;SDS011;2548;52.050;11.036;2024-03-08T08:49:34;53.00;;;28.73;;
5058;SDS011;2548;52.050;11.036;2024-03-08T08:52:01;45.45;;;26.85;;
5058;SDS011;2548;52.050;11.036;2024-03-08T08:54:31;46.33;;;27.92;;
5058;SDS011;2548;52.050;11.036;2024-03-08T08:57:01;45.28;;;28.08;;
5058;SDS011;2548;52.050;11.036;2024-03-08T08:59:33;51.47;;;31.42;;
5058;SDS011;2548;52.050;11.036;2024-03-08T09:02:01;45.38;;;28.02;;
5058;SDS011;2548;52.050;11.036;2024-03-08T09:04:29;46.83;;;29.70;;
5058;SDS011;2548;52.050;11.036;2024-03-08T09:06:57;56.03;;;31.88;;
5058;SDS011;2548;52.050;11.036;2024-03-08T09:09:25;48.17;;;30.38;;
5058;SDS011;2548;52.050;11.036;2024-03-08T09:11:53;46.15;;;29.23;;
5058;SDS011;2548;52.050;11.036;2024-03-08T09:14:21;56.47;;;31.90;;
5058;SDS011;2548;52.050;11.036;2024-03-08T09:16:51;48.90;;;30.33;;
5058;SDS011;2548;52.050;11.036;2024-03-08T09:19:19;54.13;;;30.95;;
5058;SDS011;2548;52.050;11.036;2024-03-08T09:21:49;49.13;;;30.45;;
5058;SDS011;2548;52.050;11.036;2024-03-08T09:24:17;48.00;;;29.60;;
5058;SDS011;2548;52.050;11.036;2024-03-08T09:26:44;50.58;;;30.77;;
5058;SDS011;2548;52.050;11.036;2024-03-08T09:29:13;42.67;;;29.52;;
5058;SDS011;2548;52.050;11.036;2024-03-08T09:31:41;50.53;;;30.30;;
5058;SDS011;2548;52.050;11.036;2024-03-08T09:34:11;50.15;;;30.77;;
5058;SDS011;2548;52.050;11.036;2024-03-08T09:36:39;55.38;;;34.58;;
5058;SDS011;2548;52.050;11.036;2024-03-08T09:39:07;44.70;;;29.50;;
5058;SDS011;2548;52.050;11.036;2024-03-08T09:41:34;51.42;;;30.67;;
5058;SDS011;2548;52.050;11.036;2024-03-08T09:44:02;44.63;;;29.45;;
5058;SDS011;2548;52.050;11.036;2024-03-08T09:46:32;51.42;;;31.27;;
5058;SDS011;2548;52.050;11.036;2024-03-08T09:49:00;49.45;;;28.85;;
5058;SDS011;2548;52.050;11.036;2024-03-08T09:51:28;53.95;;;32.97;;
5058;SDS011;2548;52.050;11.036;2024-03-08T09:53:56;52.22;;;29.85;;
5058;SDS011;2548;52.050;11.036;2024-03-08T09:56:24;48.72;;;31.63;;
5058;SDS011;2548;52.050;11.036;2024-03-08T09:58:53;59.28;;;31.05;;
5058;SDS011;2548;52.050;11.036;2024-03-08T10:01:41;59.42;;;30.75;;
5058;SDS011;2548;52.050;11.036;2024-03-08T10:04:10;51.08;;;30.33;;
5058;SDS011;2548;52.050;11.036;2024-03-08T10:06:39;49.55;;;32.30;;
5058;SDS011;2548;52.050;11.036;2024-03-08T10:09:06;51.10;;;29.85;;
5058;SDS011;2548;52.050;11.036;2024-03-08T10:11:36;56.50;;;31.42;;
5058;SDS011;2548;52.050;11.036;2024-03-08T10:14:03;52.83;;;32.53;;
5058;SDS011;2548;52.050;11.036;2024-03-08T10:16:32;50.92;;;30.60;;
5058;SDS011;2548;52.050;11.036;2024-03-08T10:19:02;57.70;;;31.27;;
5058;SDS011;2548;52.050;11.036;2024-03-08T10:21:31;54.00;;;32.22;;
5058;SDS011;2548;52.050;11.036;2024-03-08T10:23:59;52.00;;;31.80;;
5058;SDS011;2548;52.050;11.036;2024-03-08T10:26:30;47.33;;;31.00;;
5058;SDS011;2548;52.050;11.036;2024-03-08T10:28:57;54.05;;;31.95;;
5058;SDS011;2548;52.050;11.036;2024-03-08T10:31:25;52.42;;;30.83;;
5058;SDS011;2548;52.050;11.036;2024-03-08T10:33:52;50.00;;;31.55;;
5058;SDS011;2548;52.050;11.036;2024-03-08T10:36:21;49.15;;;30.13;;
5058;SDS011;2548;52.050;11.036;2024-03-08T10:38:50;51.90;;;33.53;;
5058;SDS011;2548;52.050;11.036;2024-03-08T10:41:19;51.63;;;30.10;;
5058;SDS011;2548;52.050;11.036;2024-03-08T10:43:52;53.08;;;30.33;;
5058;SDS011;2548;52.050;11.036;2024-03-08T10:46:41;50.20;;;31.25;;
5058;SDS011;2548;52.050;11.036;2024-03-08T10:49:22;45.90;;;29.08;;
5058;SDS011;2548;52.050;11.036;2024-03-08T10:51:58;52.85;;;30.83;;
5058;SDS011;2548;52.050;11.036;2024-03-08T10:54:27;54.28;;;31.70;;
5058;SDS011;2548;52.050;11.036;2024-03-08T10:56:56;52.80;;;32.90;;
5058;SDS011;2548;52.050;11.036;2024-03-08T10:59:24;52.63;;;31.17;;
5058;SDS011;2548;52.050;11.036;2024-03-08T11:01:53;49.53;;;30.60;;
5058;SDS011;2548;52.050;11.036;2024-03-08T11:04:21;48.55;;;31.27;;
5058;SDS011;2548;52.050;11.036;2024-03-08T11:06:50;46.72;;;28.35;;
5058;SDS011;2548;52.050;11.036;2024-03-08T11:09:28;45.95;;;30.95;;
5058;SDS011;2548;52.050;11.036;2024-03-08T11:14:51;39.47;;;26.80;;
5058;SDS011;2548;52.050;11.036;2024-03-08T11:17:26;41.75;;;27.27;;
5058;SDS011;2548;52.050;11.036;2024-03-08T11:20:11;50.70;;;27.80;;
5058;SDS011;2548;52.050;11.036;2024-03-08T11:22:42;42.25;;;25.83;;
5058;SDS011;2548;52.050;11.036;2024-03-08T11:25:32;37.72;;;26.95;;
5058;SDS011;2548;52.050;11.036;2024-03-08T11:28:12;45.05;;;27.63;;
5058;SDS011;2548;52.050;11.036;2024-03-08T11:30:45;43.50;;;28.05;;
5058;SDS011;2548;52.050;11.036;2024-03-08T11:33:14;35.92;;;23.45;;
5058;SDS011;2548;52.050;11.036;2024-03-08T11:35:42;37.50;;;24.45;;
5058;SDS011;2548;52.050;11.036;2024-03-08T11:38:12;39.45;;;24.42;;
5058;SDS011;2548;52.050;11.036;2024-03-08T11:40:42;37.88;;;23.80;;
5058;SDS011;2548;52.050;11.036;2024-03-08T11:43:09;36.97;;;24.23;;
5058;SDS011;2548;52.050;11.036;2024-03-08T11:45:38;46.53;;;25.70;;
5058;SDS011;2548;52.050;11.036;2024-03-08T11:48:06;32.25;;;22.42;;
5058;SDS011;2548;52.050;11.036;2024-03-08T11:50:34;35.13;;;23.98;;
5058;SDS011;2548;52.050;11.036;2024-03-08T11:53:03;34.17;;;21.02;;
5058;SDS011;2548;52.050;11.036;2024-03-08T11:55:33;40.58;;;22.17;;
5058;SDS011;2548;52.050;11.036;2024-03-08T11:58:03;31.67;;;21.20;;
5058;SDS011;2548;52.050;11.036;2024-03-08T12:00:33;32.58;;;22.65;;
5058;SDS011;2548;52.050;11.036;2024-03-08T12:03:05;35.17;;;23.88;;
5058;SDS011;2548;52.050;11.036;2024-03-08T12:05:35;31.80;;;21.83;;
5058;SDS011;2548;52.050;11.036;2024-03-08T12:08:04;38.10;;;22.92;;
5058;SDS011;2548;52.050;11.036;2024-03-08T12:10:32;37.13;;;23.48;;
5058;SDS011;2548;52.050;11.036;2024-03-08T12:13:02;37.83;;;22.60;;
5058;SDS011;2548;52.050;11.036;2024-03-08T12:15:37;35.45;;;22.98;;
5058;SDS011;2548;52.050;11.036;2024-03-08T12:18:04;32.30;;;21.85;;
5058;SDS011;2548;52.050;11.036;2024-03-08T12:20:33;50.47;;;23.10;;
5058;SDS011;2548;52.050;11.036;2024-03-08T12:23:00;34.10;;;22.00;;
5058;SDS011;2548;52.050;11.036;2024-03-08T12:25:29;31.63;;;21.98;;
5058;SDS011;2548;52.050;11.036;2024-03-08T12:28:08;33.42;;;23.10;;
5058;SDS011;2548;52.050;11.036;2024-03-08T12:30:43;34.38;;;21.75;;
5058;SDS011;2548;52.050;11.036;2024-03-08T12:33:14;33.85;;;22.98;;
5058;SDS011;2548;52.050;11.036;2024-03-08T12:35:49;30.52;;;22.95;;
5058;SDS011;2548;52.050;11.036;2024-03-08T12:38:20;35.08;;;21.70;;
5058;SDS011;2548;52.050;11.036;2024-03-08T12:40:51;33.78;;;22.27;;
5058;SDS011;2548;52.050;11.036;2024-03-08T12:43:24;30.25;;;20.88;;
5058;SDS011;2548;52.050;11.036;2024-03-08T12:45:51;32.92;;;22.48;;
5058;SDS011;2548;52.050;11.036;2024-03-08T12:48:20;34.95;;;22.60;;
5058;SDS011;2548;52.050;11.036;2024-03-08T12:50:47;39.17;;;22.23;;
5058;SDS011;2548;52.050;11.036;2024-03-08T12:53:17;36.10;;;23.60;;
5058;SDS011;2548;52.050;11.036;2024-03-08T12:55:44;33.08;;;23.40;;
5058;SDS011;2548;52.050;11.036;2024-03-08T12:58:12;34.78;;;22.15;;
5058;SDS011;2548;52.050;11.036;2024-03-08T13:00:43;32.58;;;22.92;;
5058;SDS011;2548;52.050;11.036;2024-03-08T13:03:11;35.05;;;21.70;;
5058;SDS011;2548;52.050;11.036;2024-03-08T13:05:38;32.95;;;22.13;;
5058;SDS011;2548;52.050;11.036;2024-03-08T13:08:08;29.75;;;20.90;;
5058;SDS011;2548;52.050;11.036;2024-03-08T13:10:38;32.70;;;21.83;;
5058;SDS011;2548;52.050;11.036;2024-03-08T13:13:06;25.98;;;19.80;;
5058;SDS011;2548;52.050;11.036;2024-03-08T13:15:35;31.73;;;20.75;;
5058;SDS011;2548;52.050;11.036;2024-03-08T13:18:04;30.88;;;20.20;;
5058;SDS011;2548;52.050;11.036;2024-03-08T13:20:34;29.40;;;20.95;;
5058;SDS011;2548;52.050;11.036;2024-03-08T13:23:03;33.72;;;20.60;;
5058;SDS011;2548;52.050;11.036;2024-03-08T13:25:30;34.35;;;22.52;;
5058;SDS011;2548;52.050;11.036;2024-03-08T13:27:58;33.08;;;22.13;;
5058;SDS011;2548;52.050;11.036;2024-03-08T13:30:26;38.28;;;23.95;;
5058;SDS011;2548;52.050;11.036;2024-03-08T13:32:53;42.50;;;23.30;;
5058;SDS011;2548;52.050;11.036;2024-03-08T13:35:22;35.20;;;22.98;;
5058;SDS011;2548;52.050;11.036;2024-03-08T13:37:52;34.83;;;22.92;;
5058;SDS011;2548;52.050;11.036;2024-03-08T13:40:20;31.15;;;20.67;;
5058;SDS011;2548;52.050;11.036;2024-03-08T13:42:48;30.13;;;20.05;;
5058;SDS011;2548;52.050;11.036;2024-03-08T13:45:16;33.42;;;21.50;;
5058;SDS011;2548;52.050;11.036;2024-03-08T13:47:48;34.20;;;21.80;;
5058;SDS011;2548;52.050;11.036;2024-03-08T13:50:17;28.83;;;21.35;;
5058;SDS011;2548;52.050;11.036;2024-03-08T13:52:48;34.45;;;21.80;;
5058;SDS011;2548;52.050;11.036;2024-03-08T13:55:17;31.58;;;22.50;;
5058;SDS011;2548;52.050;11.036;2024-03-08T13:57:44;31.42;;;20.23;;
5058;SDS011;2548;52.050;11.036;2024-03-08T14:00:12;35.95;;;22.92;;
5058;SDS011;2548;52.050;11.036;2024-03-08T14:02:41;30.88;;;21.45;;
5058;SDS011;2548;52.050;11.036;2024-03-08T14:05:08;32.75;;;20.90;;
5058;SDS011;2548;52.050;11.036;2024-03-08T14:07:37;29.65;;;21.67;;
5058;SDS011;2548;52.050;11.036;2024-03-08T14:10:07;31.08;;;21.70;;
5058;SDS011;2548;52.050;11.036;2024-03-08T14:12:35;28.05;;;20.02;;
5058;SDS011;2548;52.050;11.036;2024-03-08T14:15:04;37.35;;;23.73;;
5058;SDS011;2548;52.050;11.036;2024-03-08T14:17:32;31.65;;;21.65;;
5058;SDS011;2548;52.050;11.036;2024-03-08T14:19:59;31.17;;;21.17;;
5058;SDS011;2548;52.050;11.036;2024-03-08T14:22:27;33.13;;;20.60;;
5058;SDS011;2548;52.050;11.036;2024-03-08T14:24:57;31.90;;;21.50;;
5058;SDS011;2548;52.050;11.036;2024-03-08T14:27:25;29.63;;;21.30;;
5058;SDS011;2548;52.050;11.036;2024-03-08T14:29:54;32.22;;;22.05;;
5058;SDS011;2548;52.050;11.036;2024-03-08T14:32:21;35.90;;;21.65;;
5058;SDS011;2548;52.050;11.036;2024-03-08T14:34:49;34.53;;;23.33;;
5058;SDS011;2548;52.050;11.036;2024-03-08T14:37:16;32.78;;;20.75;;
5058;SDS011;2548;52.050;11.036;2024-03-08T14:39:48;31.05;;;21.92;;
5058;SDS011;2548;52.050;11.036;2024-03-08T14:42:17;36.08;;;21.50;;
5058;SDS011;2548;52.050;11.036;2024-03-08T14:44:49;33.17;;;22.83;;
5058;SDS011;2548;52.050;11.036;2024-03-08T14:47:18;36.83;;;22.73;;
5058;SDS011;2548;52.050;11.036;2024-03-08T14:49:45;30.90;;;22.13;;